ATMO2: Muddy Boggy Creek at Atoka

                                SHEF ID:       ATMO2     Muddy Boggy Creek at Atoka, OK
STATION TYPE:

PRECIP STAGE RIV-FLOW VOLTAGE BAT-LOAD
in ft cfs volt volt
Ccp-Rev Ccp-Rev Ccp-Rev Ccp-Rev Ccp-Rev
(America/Chicago)
04/27 00:00 0.00 18.67 844 12.83 12.58
04/27 01:00 0.00 18.54 775 12.82 12.57
04/27 02:00 0.00 18.42 724 12.82 12.57
04/27 03:00 0.00 18.31 698 12.82 12.57
04/27 04:00 0.00 18.22 676 12.81 12.56
04/27 05:00 0.00 18.15 659 12.80 12.55
04/27 06:00 0.00 18.11 650 12.80 12.55
04/27 07:00 0.00 18.09 645 12.81 12.55
04/27 08:00 0.00 18.11 650 12.95 12.64
04/27 09:00 0.00 18.15 659 13.82 12.77
04/27 10:00 0.00 18.20 671 13.98 12.79
04/27 11:00 0.00 18.24 681 13.78 12.77
04/27 12:00 0.00 18.27 688 13.96 12.73
04/27 13:00 0.00 18.29 693 13.87 12.76
04/27 14:00 0.00 18.27 688 13.59 12.73
04/27 15:00 0.00 18.24 681 13.52 12.73
04/27 16:00 0.00 18.20 671 13.39 12.70
04/27 17:00 0.00 18.15 659 13.30 12.67
04/27 18:00 0.00 18.07 640 13.26 12.67
04/27 19:00 0.00 17.98 618 13.24 12.66
04/27 20:00 0.00 17.89 597 12.86 12.61
04/27 21:00 0.00 17.80 575 12.82 12.57
04/27 22:00 0.00 17.70 551 12.81 12.57
04/27 23:00 0.00 17.61 530 12.80 12.56
Data processed at Tue 28Apr2026 04:54 GMT

NOTICE: If you are parsing this page

Please convert to using our Data API. Starting early 2026 we will be migrating to: https://water.usace.army.mil with modern pages rendered in JavaScript. When this migration completes you will no longer be able to scrape this page! CWMSDataAPI (CDA)

Timeseries IDs (TSIDs)

TSIDs used from left to right in the data table
ATMB.Precip-Inc.Total.1Hour.1Hour.Ccp-Rev
ATMB.Stage.Inst.1Hour.0.Ccp-Rev
ATMB.Flow.Inst.1Hour.0.Ccp-Rev
ATMB.Volt-Battery.Inst.1Hour.0.Ccp-Rev
ATMB.Volt-Battery Load.Inst.1Hour.0.Ccp-Rev

                            

All information presented herein is the property of the government of the United States of America and may be revised or deleted at any time without prior notice. Dissemination of this information without the expressed written consent of the Public Affairs Office, Tulsa District U.S. Army Corps of Engineers is strictly prohibited. These data are gathered electronically and, as presented, have NOT undergone any form of quality control. These data are NOT guaranteed to be valid or correct.